sensor_id;sensor_type;location;lat;lon;timestamp;P1;durP1;ratioP1;P2;durP2;ratioP2
26484;SDS011;18083;50.560;7.262;2024-03-08T00:03:11;26.53;;;15.83;;
26484;SDS011;18083;50.560;7.262;2024-03-08T00:05:43;24.30;;;15.43;;
26484;SDS011;18083;50.560;7.262;2024-03-08T00:11:44;26.27;;;15.63;;
26484;SDS011;18083;50.560;7.262;2024-03-08T00:14:12;23.17;;;15.10;;
26484;SDS011;18083;50.560;7.262;2024-03-08T00:16:41;26.03;;;15.23;;
26484;SDS011;18083;50.560;7.262;2024-03-08T00:19:10;25.73;;;14.97;;
26484;SDS011;18083;50.560;7.262;2024-03-08T00:21:37;24.73;;;16.50;;
26484;SDS011;18083;50.560;7.262;2024-03-08T00:24:05;23.37;;;15.03;;
26484;SDS011;18083;50.560;7.262;2024-03-08T00:26:32;23.47;;;15.23;;
26484;SDS011;18083;50.560;7.262;2024-03-08T00:31:56;27.90;;;16.63;;
26484;SDS011;18083;50.560;7.262;2024-03-08T00:34:24;25.60;;;14.67;;
26484;SDS011;18083;50.560;7.262;2024-03-08T00:36:51;27.90;;;15.70;;
26484;SDS011;18083;50.560;7.262;2024-03-08T00:42:15;29.03;;;15.47;;
26484;SDS011;18083;50.560;7.262;2024-03-08T00:44:43;24.67;;;15.57;;
26484;SDS011;18083;50.560;7.262;2024-03-08T00:47:11;28.27;;;17.13;;
26484;SDS011;18083;50.560;7.262;2024-03-08T00:49:40;23.80;;;15.87;;
26484;SDS011;18083;50.560;7.262;2024-03-08T00:52:07;24.30;;;15.30;;
26484;SDS011;18083;50.560;7.262;2024-03-08T00:54:36;23.90;;;14.27;;
26484;SDS011;18083;50.560;7.262;2024-03-08T06:02:06;37.10;;;19.90;;
26484;SDS011;18083;50.560;7.262;2024-03-08T06:04:50;33.23;;;18.50;;
26484;SDS011;18083;50.560;7.262;2024-03-08T06:13:28;36.27;;;20.00;;
26484;SDS011;18083;50.560;7.262;2024-03-08T06:16:23;40.17;;;18.97;;
26484;SDS011;18083;50.560;7.262;2024-03-08T06:19:07;37.80;;;20.87;;
26484;SDS011;18083;50.560;7.262;2024-03-08T06:24:48;37.90;;;18.73;;
26484;SDS011;18083;50.560;7.262;2024-03-08T06:27:39;38.33;;;17.87;;
26484;SDS011;18083;50.560;7.262;2024-03-08T06:30:10;34.07;;;20.67;;
26484;SDS011;18083;50.560;7.262;2024-03-08T06:32:53;36.87;;;21.07;;
26484;SDS011;18083;50.560;7.262;2024-03-08T06:35:37;37.57;;;19.90;;
26484;SDS011;18083;50.560;7.262;2024-03-08T06:41:18;34.93;;;19.33;;
26484;SDS011;18083;50.560;7.262;2024-03-08T06:47:01;37.37;;;21.23;;
26484;SDS011;18083;50.560;7.262;2024-03-08T06:49:47;29.20;;;18.00;;
26484;SDS011;18083;50.560;7.262;2024-03-08T07:01:49;34.73;;;21.93;;
26484;SDS011;18083;50.560;7.262;2024-03-08T08:35:41;32.97;;;20.37;;
26484;SDS011;18083;50.560;7.262;2024-03-08T09:25:52;25.33;;;15.97;;
26484;SDS011;18083;50.560;7.262;2024-03-08T09:28:20;28.40;;;16.27;;
26484;SDS011;18083;50.560;7.262;2024-03-08T09:42:29;29.87;;;16.03;;
26484;SDS011;18083;50.560;7.262;2024-03-08T09:57:36;30.27;;;15.30;;
26484;SDS011;18083;50.560;7.262;2024-03-08T10:31:43;19.00;;;13.40;;
26484;SDS011;18083;50.560;7.262;2024-03-08T10:37:32;18.48;;;11.38;;
26484;SDS011;18083;50.560;7.262;2024-03-08T10:40:14;20.57;;;12.57;;
26484;SDS011;18083;50.560;7.262;2024-03-08T10:45:50;19.55;;;13.08;;
26484;SDS011;18083;50.560;7.262;2024-03-08T10:51:25;15.97;;;11.37;;
26484;SDS011;18083;50.560;7.262;2024-03-08T10:54:14;18.43;;;13.27;;
26484;SDS011;18083;50.560;7.262;2024-03-08T10:56:58;19.60;;;12.43;;
26484;SDS011;18083;50.560;7.262;2024-03-08T10:59:51;17.60;;;11.13;;
26484;SDS011;18083;50.560;7.262;2024-03-08T11:02:59;17.60;;;12.03;;
26484;SDS011;18083;50.560;7.262;2024-03-08T11:10:55;16.32;;;10.82;;
26484;SDS011;18083;50.560;7.262;2024-03-08T11:21:53;15.18;;;11.57;;
26484;SDS011;18083;50.560;7.262;2024-03-08T11:55:34;13.93;;;9.68;;
26484;SDS011;18083;50.560;7.262;2024-03-08T12:08:46;12.95;;;9.60;;
26484;SDS011;18083;50.560;7.262;2024-03-08T12:11:17;14.75;;;9.80;;
26484;SDS011;18083;50.560;7.262;2024-03-08T12:13:49;13.28;;;10.13;;
26484;SDS011;18083;50.560;7.262;2024-03-08T12:16:17;18.23;;;9.83;;
26484;SDS011;18083;50.560;7.262;2024-03-08T12:18:45;13.58;;;8.88;;
26484;SDS011;18083;50.560;7.262;2024-03-08T12:21:15;13.32;;;10.20;;
26484;SDS011;18083;50.560;7.262;2024-03-08T12:23:44;15.72;;;10.03;;
26484;SDS011;18083;50.560;7.262;2024-03-08T12:26:15;11.15;;;8.70;;
26484;SDS011;18083;50.560;7.262;2024-03-08T12:28:43;13.50;;;9.73;;
26484;SDS011;18083;50.560;7.262;2024-03-08T12:31:17;15.43;;;10.03;;
26484;SDS011;18083;50.560;7.262;2024-03-08T12:33:52;14.47;;;8.65;;
26484;SDS011;18083;50.560;7.262;2024-03-08T12:36:20;12.75;;;9.80;;
26484;SDS011;18083;50.560;7.262;2024-03-08T12:38:47;13.48;;;10.00;;
26484;SDS011;18083;50.560;7.262;2024-03-08T12:41:15;14.35;;;9.50;;
26484;SDS011;18083;50.560;7.262;2024-03-08T12:43:43;14.15;;;9.25;;
26484;SDS011;18083;50.560;7.262;2024-03-08T12:46:18;14.05;;;10.15;;
26484;SDS011;18083;50.560;7.262;2024-03-08T12:48:48;12.90;;;9.18;;
26484;SDS011;18083;50.560;7.262;2024-03-08T12:51:16;14.00;;;9.53;;
26484;SDS011;18083;50.560;7.262;2024-03-08T12:53:44;15.45;;;10.85;;
26484;SDS011;18083;50.560;7.262;2024-03-08T12:56:19;12.80;;;8.73;;
26484;SDS011;18083;50.560;7.262;2024-03-08T12:58:41;12.70;;;9.70;;
26484;SDS011;18083;50.560;7.262;2024-03-08T13:01:09;13.70;;;9.53;;
26484;SDS011;18083;50.560;7.262;2024-03-08T13:03:36;15.32;;;10.05;;
26484;SDS011;18083;50.560;7.262;2024-03-08T13:06:04;12.68;;;9.53;;
26484;SDS011;18083;50.560;7.262;2024-03-08T13:08:38;14.25;;;9.70;;
26484;SDS011;18083;50.560;7.262;2024-03-08T13:11:05;11.30;;;8.83;;
26484;SDS011;18083;50.560;7.262;2024-03-08T13:13:34;14.20;;;9.18;;
26484;SDS011;18083;50.560;7.262;2024-03-08T13:16:03;13.95;;;9.48;;
26484;SDS011;18083;50.560;7.262;2024-03-08T13:18:32;13.08;;;10.05;;
26484;SDS011;18083;50.560;7.262;2024-03-08T13:20:59;11.53;;;9.13;;
26484;SDS011;18083;50.560;7.262;2024-03-08T13:23:28;13.18;;;8.50;;
26484;SDS011;18083;50.560;7.262;2024-03-08T13:25:56;14.50;;;9.58;;
26484;SDS011;18083;50.560;7.262;2024-03-08T13:28:26;11.83;;;9.25;;
26484;SDS011;18083;50.560;7.262;2024-03-08T13:30:55;10.50;;;9.28;;
26484;SDS011;18083;50.560;7.262;2024-03-08T13:33:27;14.00;;;10.30;;
26484;SDS011;18083;50.560;7.262;2024-03-08T13:35:54;18.05;;;11.40;;
26484;SDS011;18083;50.560;7.262;2024-03-08T13:38:23;13.70;;;9.18;;
26484;SDS011;18083;50.560;7.262;2024-03-08T13:40:50;12.47;;;9.68;;
26484;SDS011;18083;50.560;7.262;2024-03-08T13:43:18;13.00;;;9.80;;
26484;SDS011;18083;50.560;7.262;2024-03-08T13:45:46;13.03;;;9.78;;
26484;SDS011;18083;50.560;7.262;2024-03-08T13:48:13;12.68;;;9.73;;
26484;SDS011;18083;50.560;7.262;2024-03-08T13:50:41;14.83;;;9.28;;
26484;SDS011;18083;50.560;7.262;2024-03-08T13:53:08;11.85;;;9.03;;
26484;SDS011;18083;50.560;7.262;2024-03-08T13:55:36;15.88;;;10.50;;
26484;SDS011;18083;50.560;7.262;2024-03-08T13:58:03;14.07;;;10.03;;
26484;SDS011;18083;50.560;7.262;2024-03-08T14:00:32;14.75;;;10.50;;
26484;SDS011;18083;50.560;7.262;2024-03-08T14:03:00;14.47;;;9.23;;
26484;SDS011;18083;50.560;7.262;2024-03-08T14:05:29;15.80;;;9.73;;
26484;SDS011;18083;50.560;7.262;2024-03-08T14:07:58;14.15;;;10.03;;
26484;SDS011;18083;50.560;7.262;2024-03-08T14:10:27;14.60;;;9.30;;
26484;SDS011;18083;50.560;7.262;2024-03-08T14:12:54;16.73;;;10.82;;
26484;SDS011;18083;50.560;7.262;2024-03-08T14:15:21;17.95;;;10.10;;
26484;SDS011;18083;50.560;7.262;2024-03-08T14:17:53;16.97;;;9.88;;
26484;SDS011;18083;50.560;7.262;2024-03-08T14:20:18;15.65;;;10.85;;
26484;SDS011;18083;50.560;7.262;2024-03-08T14:22:45;14.60;;;9.83;;
26484;SDS011;18083;50.560;7.262;2024-03-08T14:25:12;13.58;;;8.80;;
26484;SDS011;18083;50.560;7.262;2024-03-08T14:27:42;14.43;;;9.60;;
26484;SDS011;18083;50.560;7.262;2024-03-08T14:30:10;12.47;;;11.05;;
26484;SDS011;18083;50.560;7.262;2024-03-08T14:32:38;14.03;;;9.83;;
26484;SDS011;18083;50.560;7.262;2024-03-08T14:35:05;13.60;;;10.43;;
26484;SDS011;18083;50.560;7.262;2024-03-08T14:37:33;12.88;;;9.43;;
26484;SDS011;18083;50.560;7.262;2024-03-08T14:40:01;15.85;;;10.28;;
26484;SDS011;18083;50.560;7.262;2024-03-08T14:42:30;15.23;;;10.48;;
26484;SDS011;18083;50.560;7.262;2024-03-08T14:44:57;14.03;;;8.75;;
26484;SDS011;18083;50.560;7.262;2024-03-08T14:47:26;14.85;;;8.68;;
26484;SDS011;18083;50.560;7.262;2024-03-08T14:49:54;12.65;;;9.33;;
26484;SDS011;18083;50.560;7.262;2024-03-08T14:52:22;12.40;;;9.33;;
26484;SDS011;18083;50.560;7.262;2024-03-08T14:54:55;11.93;;;9.68;;
26484;SDS011;18083;50.560;7.262;2024-03-08T14:57:25;12.70;;;10.25;;
26484;SDS011;18083;50.560;7.262;2024-03-08T14:59:52;15.98;;;10.08;;
26484;SDS011;18083;50.560;7.262;2024-03-08T15:02:20;16.40;;;10.68;;
26484;SDS011;18083;50.560;7.262;2024-03-08T15:04:48;12.85;;;9.48;;
26484;SDS011;18083;50.560;7.262;2024-03-08T15:07:20;13.38;;;9.65;;
26484;SDS011;18083;50.560;7.262;2024-03-08T15:09:47;15.13;;;10.35;;
26484;SDS011;18083;50.560;7.262;2024-03-08T15:12:14;15.25;;;10.45;;
26484;SDS011;18083;50.560;7.262;2024-03-08T15:14:42;12.47;;;8.15;;
26484;SDS011;18083;50.560;7.262;2024-03-08T15:17:10;10.78;;;9.43;;
26484;SDS011;18083;50.560;7.262;2024-03-08T15:19:39;15.40;;;11.22;;
26484;SDS011;18083;50.560;7.262;2024-03-08T15:22:06;14.65;;;9.75;;
26484;SDS011;18083;50.560;7.262;2024-03-08T15:24:33;17.15;;;11.63;;
26484;SDS011;18083;50.560;7.262;2024-03-08T15:27:01;16.17;;;11.28;;
26484;SDS011;18083;50.560;7.262;2024-03-08T15:29:29;15.03;;;10.32;;
26484;SDS011;18083;50.560;7.262;2024-03-08T15:31:58;17.75;;;10.75;;
26484;SDS011;18083;50.560;7.262;2024-03-08T15:34:25;16.20;;;11.28;;
26484;SDS011;18083;50.560;7.262;2024-03-08T15:36:52;17.75;;;10.85;;
26484;SDS011;18083;50.560;7.262;2024-03-08T15:39:20;18.00;;;10.93;;
26484;SDS011;18083;50.560;7.262;2024-03-08T15:41:49;14.40;;;10.93;;
26484;SDS011;18083;50.560;7.262;2024-03-08T15:44:16;17.60;;;10.88;;
26484;SDS011;18083;50.560;7.262;2024-03-08T15:46:44;15.03;;;9.48;;
26484;SDS011;18083;50.560;7.262;2024-03-08T15:49:12;16.60;;;10.20;;
26484;SDS011;18083;50.560;7.262;2024-03-08T15:51:40;19.52;;;10.78;;
26484;SDS011;18083;50.560;7.262;2024-03-08T15:54:08;17.15;;;12.28;;
26484;SDS011;18083;50.560;7.262;2024-03-08T15:56:36;14.60;;;10.65;;
26484;SDS011;18083;50.560;7.262;2024-03-08T15:59:04;18.57;;;11.28;;
26484;SDS011;18083;50.560;7.262;2024-03-08T16:01:33;15.50;;;10.78;;
26484;SDS011;18083;50.560;7.262;2024-03-08T16:04:00;15.10;;;10.50;;
26484;SDS011;18083;50.560;7.262;2024-03-08T16:06:28;18.27;;;11.68;;
26484;SDS011;18083;50.560;7.262;2024-03-08T16:08:55;15.63;;;10.45;;
26484;SDS011;18083;50.560;7.262;2024-03-08T16:11:24;15.00;;;9.78;;
26484;SDS011;18083;50.560;7.262;2024-03-08T16:13:52;16.25;;;10.90;;
26484;SDS011;18083;50.560;7.262;2024-03-08T16:16:19;15.58;;;10.05;;
26484;SDS011;18083;50.560;7.262;2024-03-08T16:18:48;15.53;;;10.20;;
26484;SDS011;18083;50.560;7.262;2024-03-08T16:21:15;16.65;;;10.13;;
26484;SDS011;18083;50.560;7.262;2024-03-08T16:23:43;17.10;;;11.30;;
26484;SDS011;18083;50.560;7.262;2024-03-08T16:26:12;14.53;;;10.63;;
26484;SDS011;18083;50.560;7.262;2024-03-08T16:28:39;18.32;;;10.90;;
26484;SDS011;18083;50.560;7.262;2024-03-08T16:31:07;17.50;;;10.95;;
26484;SDS011;18083;50.560;7.262;2024-03-08T16:33:36;16.93;;;10.90;;
26484;SDS011;18083;50.560;7.262;2024-03-08T16:36:04;17.92;;;11.00;;
26484;SDS011;18083;50.560;7.262;2024-03-08T16:38:31;16.50;;;10.68;;
26484;SDS011;18083;50.560;7.262;2024-03-08T16:41:00;17.50;;;11.48;;
26484;SDS011;18083;50.560;7.262;2024-03-08T16:43:29;17.77;;;12.00;;
26484;SDS011;18083;50.560;7.262;2024-03-08T16:45:58;20.55;;;11.38;;
26484;SDS011;18083;50.560;7.262;2024-03-08T16:48:27;13.45;;;10.82;;
26484;SDS011;18083;50.560;7.262;2024-03-08T16:50:56;19.42;;;13.25;;
26484;SDS011;18083;50.560;7.262;2024-03-08T16:53:23;17.12;;;11.45;;
26484;SDS011;18083;50.560;7.262;2024-03-08T16:55:51;17.48;;;11.00;;
26484;SDS011;18083;50.560;7.262;2024-03-08T16:58:19;20.93;;;13.17;;
26484;SDS011;18083;50.560;7.262;2024-03-08T17:00:47;18.20;;;11.87;;
26484;SDS011;18083;50.560;7.262;2024-03-08T17:03:15;16.23;;;10.68;;
26484;SDS011;18083;50.560;7.262;2024-03-08T17:05:43;16.03;;;10.37;;
26484;SDS011;18083;50.560;7.262;2024-03-08T17:08:14;22.58;;;12.58;;
26484;SDS011;18083;50.560;7.262;2024-03-08T17:10:44;17.37;;;12.77;;
26484;SDS011;18083;50.560;7.262;2024-03-08T17:13:11;19.67;;;12.80;;
26484;SDS011;18083;50.560;7.262;2024-03-08T17:15:38;19.43;;;12.50;;
26484;SDS011;18083;50.560;7.262;2024-03-08T17:18:07;18.23;;;12.27;;
26484;SDS011;18083;50.560;7.262;2024-03-08T17:20:35;18.37;;;12.37;;
26484;SDS011;18083;50.560;7.262;2024-03-08T17:23:04;21.87;;;13.00;;
26484;SDS011;18083;50.560;7.262;2024-03-08T17:25:32;19.10;;;11.47;;
26484;SDS011;18083;50.560;7.262;2024-03-08T17:28:01;18.50;;;11.80;;
26484;SDS011;18083;50.560;7.262;2024-03-08T17:30:29;21.23;;;13.33;;
26484;SDS011;18083;50.560;7.262;2024-03-08T17:32:58;21.10;;;12.83;;
26484;SDS011;18083;50.560;7.262;2024-03-08T17:35:26;22.53;;;12.87;;
26484;SDS011;18083;50.560;7.262;2024-03-08T17:37:55;19.87;;;12.17;;
26484;SDS011;18083;50.560;7.262;2024-03-08T17:40:24;19.40;;;12.07;;
26484;SDS011;18083;50.560;7.262;2024-03-08T17:42:52;23.13;;;13.23;;
26484;SDS011;18083;50.560;7.262;2024-03-08T17:45:19;21.30;;;12.53;;
26484;SDS011;18083;50.560;7.262;2024-03-08T17:47:52;23.13;;;12.40;;
26484;SDS011;18083;50.560;7.262;2024-03-08T17:50:17;20.13;;;12.63;;
26484;SDS011;18083;50.560;7.262;2024-03-08T17:52:45;22.50;;;12.27;;
26484;SDS011;18083;50.560;7.262;2024-03-08T17:55:13;22.10;;;13.73;;
26484;SDS011;18083;50.560;7.262;2024-03-08T17:57:42;20.97;;;13.50;;
26484;SDS011;18083;50.560;7.262;2024-03-08T18:00:11;19.17;;;11.60;;
26484;SDS011;18083;50.560;7.262;2024-03-08T18:02:48;19.37;;;12.40;;
26484;SDS011;18083;50.560;7.262;2024-03-08T18:05:18;18.63;;;12.33;;
26484;SDS011;18083;50.560;7.262;2024-03-08T18:07:50;20.80;;;12.30;;
26484;SDS011;18083;50.560;7.262;2024-03-08T18:10:22;19.67;;;11.93;;
26484;SDS011;18083;50.560;7.262;2024-03-08T18:12:58;21.57;;;13.20;;
26484;SDS011;18083;50.560;7.262;2024-03-08T18:15:47;21.10;;;13.53;;
26484;SDS011;18083;50.560;7.262;2024-03-08T18:18:20;20.17;;;12.47;;
26484;SDS011;18083;50.560;7.262;2024-03-08T18:20:46;21.13;;;12.97;;
26484;SDS011;18083;50.560;7.262;2024-03-08T18:23:32;24.63;;;13.17;;
26484;SDS011;18083;50.560;7.262;2024-03-08T18:26:19;23.57;;;13.13;;
26484;SDS011;18083;50.560;7.262;2024-03-08T18:28:49;22.43;;;13.30;;
26484;SDS011;18083;50.560;7.262;2024-03-08T18:31:23;26.50;;;13.43;;
26484;SDS011;18083;50.560;7.262;2024-03-08T18:36:41;20.73;;;11.70;;
26484;SDS011;18083;50.560;7.262;2024-03-08T18:45:01;20.73;;;13.17;;
26484;SDS011;18083;50.560;7.262;2024-03-08T18:50:17;23.33;;;14.10;;
26484;SDS011;18083;50.560;7.262;2024-03-08T18:55:43;35.43;;;21.80;;
26484;SDS011;18083;50.560;7.262;2024-03-08T18:58:09;31.60;;;19.30;;
26484;SDS011;18083;50.560;7.262;2024-03-08T19:00:42;28.17;;;18.07;;
26484;SDS011;18083;50.560;7.262;2024-03-08T19:03:15;27.07;;;16.70;;
26484;SDS011;18083;50.560;7.262;2024-03-08T19:13:56;24.63;;;15.00;;
26484;SDS011;18083;50.560;7.262;2024-03-08T19:16:37;25.10;;;18.17;;
26484;SDS011;18083;50.560;7.262;2024-03-08T19:19:22;27.20;;;16.50;;
26484;SDS011;18083;50.560;7.262;2024-03-08T19:21:50;30.90;;;16.87;;
26484;SDS011;18083;50.560;7.262;2024-03-08T19:30:11;24.77;;;15.53;;
26484;SDS011;18083;50.560;7.262;2024-03-08T19:45:53;22.73;;;16.03;;
26484;SDS011;18083;50.560;7.262;2024-03-08T19:53:48;34.53;;;21.43;;
26484;SDS011;18083;50.560;7.262;2024-03-08T19:56:22;28.13;;;18.20;;
26484;SDS011;18083;50.560;7.262;2024-03-08T20:07:20;28.17;;;19.47;;
26484;SDS011;18083;50.560;7.262;2024-03-08T20:10:09;73.97;;;41.70;;
26484;SDS011;18083;50.560;7.262;2024-03-08T20:12:22;27.33;;;18.97;;
26484;SDS011;18083;50.560;7.262;2024-03-08T20:37:03;37.83;;;21.80;;
26484;SDS011;18083;50.560;7.262;2024-03-08T20:39:32;35.70;;;19.00;;
26484;SDS011;18083;50.560;7.262;2024-03-08T20:41:59;28.60;;;17.57;;
26484;SDS011;18083;50.560;7.262;2024-03-08T20:44:29;25.87;;;16.30;;
26484;SDS011;18083;50.560;7.262;2024-03-08T20:46:57;40.00;;;24.17;;
26484;SDS011;18083;50.560;7.262;2024-03-08T20:49:25;30.63;;;20.50;;
26484;SDS011;18083;50.560;7.262;2024-03-08T20:51:52;32.73;;;17.73;;
26484;SDS011;18083;50.560;7.262;2024-03-08T20:54:21;34.33;;;21.17;;
26484;SDS011;18083;50.560;7.262;2024-03-08T20:56:48;30.03;;;18.97;;
26484;SDS011;18083;50.560;7.262;2024-03-08T20:59:17;37.03;;;23.23;;
26484;SDS011;18083;50.560;7.262;2024-03-08T21:01:46;32.10;;;18.07;;
26484;SDS011;18083;50.560;7.262;2024-03-08T21:04:13;32.90;;;18.37;;
26484;SDS011;18083;50.560;7.262;2024-03-08T21:06:42;44.47;;;27.00;;
26484;SDS011;18083;50.560;7.262;2024-03-08T21:09:10;40.27;;;21.90;;
26484;SDS011;18083;50.560;7.262;2024-03-08T21:11:38;34.50;;;22.07;;
26484;SDS011;18083;50.560;7.262;2024-03-08T21:14:06;33.50;;;21.97;;
26484;SDS011;18083;50.560;7.262;2024-03-08T21:16:35;42.30;;;23.23;;
26484;SDS011;18083;50.560;7.262;2024-03-08T21:19:03;33.13;;;19.27;;
26484;SDS011;18083;50.560;7.262;2024-03-08T21:21:31;31.73;;;19.30;;
26484;SDS011;18083;50.560;7.262;2024-03-08T21:23:59;26.20;;;16.00;;
26484;SDS011;18083;50.560;7.262;2024-03-08T21:26:26;31.60;;;17.50;;
26484;SDS011;18083;50.560;7.262;2024-03-08T21:28:53;29.13;;;15.40;;
26484;SDS011;18083;50.560;7.262;2024-03-08T21:31:21;24.30;;;15.17;;
26484;SDS011;18083;50.560;7.262;2024-03-08T21:33:49;28.13;;;14.80;;
26484;SDS011;18083;50.560;7.262;2024-03-08T21:36:17;26.20;;;16.93;;
26484;SDS011;18083;50.560;7.262;2024-03-08T21:38:46;25.60;;;15.00;;
26484;SDS011;18083;50.560;7.262;2024-03-08T21:41:13;22.20;;;14.30;;
26484;SDS011;18083;50.560;7.262;2024-03-08T21:43:40;25.67;;;14.87;;
26484;SDS011;18083;50.560;7.262;2024-03-08T21:46:08;21.10;;;12.83;;
26484;SDS011;18083;50.560;7.262;2024-03-08T21:48:35;23.73;;;13.40;;
26484;SDS011;18083;50.560;7.262;2024-03-08T21:51:02;27.00;;;14.23;;
26484;SDS011;18083;50.560;7.262;2024-03-08T21:53:31;21.70;;;13.53;;
26484;SDS011;18083;50.560;7.262;2024-03-08T21:56:00;21.90;;;12.60;;
26484;SDS011;18083;50.560;7.262;2024-03-08T21:58:27;22.67;;;13.40;;
26484;SDS011;18083;50.560;7.262;2024-03-08T22:00:55;20.17;;;11.93;;
26484;SDS011;18083;50.560;7.262;2024-03-08T22:03:22;26.37;;;13.47;;
26484;SDS011;18083;50.560;7.262;2024-03-08T22:05:51;27.33;;;14.23;;
26484;SDS011;18083;50.560;7.262;2024-03-08T22:08:19;22.40;;;13.50;;
26484;SDS011;18083;50.560;7.262;2024-03-08T22:10:46;23.60;;;14.63;;
26484;SDS011;18083;50.560;7.262;2024-03-08T22:13:14;22.43;;;12.47;;
26484;SDS011;18083;50.560;7.262;2024-03-08T22:15:41;23.53;;;13.10;;
26484;SDS011;18083;50.560;7.262;2024-03-08T22:18:10;22.80;;;12.37;;
26484;SDS011;18083;50.560;7.262;2024-03-08T22:20:38;25.13;;;12.80;;
26484;SDS011;18083;50.560;7.262;2024-03-08T22:23:06;22.30;;;12.90;;
26484;SDS011;18083;50.560;7.262;2024-03-08T22:25:33;20.20;;;13.30;;
26484;SDS011;18083;50.560;7.262;2024-03-08T22:28:02;23.17;;;13.67;;
26484;SDS011;18083;50.560;7.262;2024-03-08T22:30:31;19.40;;;13.47;;
26484;SDS011;18083;50.560;7.262;2024-03-08T22:32:59;25.77;;;12.77;;
26484;SDS011;18083;50.560;7.262;2024-03-08T22:35:26;26.40;;;14.47;;
26484;SDS011;18083;50.560;7.262;2024-03-08T22:37:54;24.27;;;14.97;;
26484;SDS011;18083;50.560;7.262;2024-03-08T22:40:21;27.63;;;14.13;;
26484;SDS011;18083;50.560;7.262;2024-03-08T22:42:53;29.73;;;14.67;;
26484;SDS011;18083;50.560;7.262;2024-03-08T22:45:21;27.77;;;15.30;;
26484;SDS011;18083;50.560;7.262;2024-03-08T22:47:50;26.20;;;15.97;;
26484;SDS011;18083;50.560;7.262;2024-03-08T22:50:17;21.20;;;13.00;;
26484;SDS011;18083;50.560;7.262;2024-03-08T22:52:45;29.30;;;14.47;;
26484;SDS011;18083;50.560;7.262;2024-03-08T22:55:12;25.20;;;13.97;;
26484;SDS011;18083;50.560;7.262;2024-03-08T22:57:42;22.87;;;13.73;;
26484;SDS011;18083;50.560;7.262;2024-03-08T23:00:10;32.80;;;15.90;;
26484;SDS011;18083;50.560;7.262;2024-03-08T23:02:52;27.80;;;14.90;;
26484;SDS011;18083;50.560;7.262;2024-03-08T23:05:20;25.10;;;13.90;;
26484;SDS011;18083;50.560;7.262;2024-03-08T23:07:48;23.53;;;15.30;;
26484;SDS011;18083;50.560;7.262;2024-03-08T23:10:16;23.60;;;13.87;;
26484;SDS011;18083;50.560;7.262;2024-03-08T23:12:43;23.80;;;13.67;;
26484;SDS011;18083;50.560;7.262;2024-03-08T23:15:13;26.93;;;13.47;;
26484;SDS011;18083;50.560;7.262;2024-03-08T23:17:42;23.90;;;13.90;;
26484;SDS011;18083;50.560;7.262;2024-03-08T23:20:10;24.17;;;14.20;;
26484;SDS011;18083;50.560;7.262;2024-03-08T23:22:44;25.97;;;14.53;;
26484;SDS011;18083;50.560;7.262;2024-03-08T23:25:10;24.33;;;14.63;;
26484;SDS011;18083;50.560;7.262;2024-03-08T23:27:38;19.40;;;12.87;;
26484;SDS011;18083;50.560;7.262;2024-03-08T23:30:05;23.60;;;14.23;;
26484;SDS011;18083;50.560;7.262;2024-03-08T23:32:35;22.10;;;12.30;;
26484;SDS011;18083;50.560;7.262;2024-03-08T23:35:02;25.53;;;13.37;;
26484;SDS011;18083;50.560;7.262;2024-03-08T23:37:31;24.10;;;14.30;;
26484;SDS011;18083;50.560;7.262;2024-03-08T23:39:58;25.13;;;15.43;;
26484;SDS011;18083;50.560;7.262;2024-03-08T23:42:26;22.43;;;14.03;;
26484;SDS011;18083;50.560;7.262;2024-03-08T23:44:54;23.03;;;12.90;;
26484;SDS011;18083;50.560;7.262;2024-03-08T23:47:21;20.27;;;12.63;;
26484;SDS011;18083;50.560;7.262;2024-03-08T23:49:49;22.17;;;13.03;;
26484;SDS011;18083;50.560;7.262;2024-03-08T23:52:19;26.50;;;13.97;;
26484;SDS011;18083;50.560;7.262;2024-03-08T23:54:48;21.37;;;12.93;;
26484;SDS011;18083;50.560;7.262;2024-03-08T23:57:15;25.57;;;13.43;;
26484;SDS011;18083;50.560;7.262;2024-03-08T23:59:43;22.07;;;12.80;;
